createdAt,value
2018-08-12T00:00:52.965Z,4.73
2018-08-12T00:03:27.041Z,5.23
2018-08-12T00:06:01.229Z,3.70
2018-08-12T00:08:35.875Z,4.83
2018-08-12T00:11:10.323Z,4.93
2018-08-12T00:13:45.205Z,4.33
2018-08-12T00:16:20.094Z,4.63
2018-08-12T00:18:54.203Z,4.67
2018-08-12T00:21:28.694Z,4.97
2018-08-12T00:24:03.418Z,4.80
2018-08-12T00:26:39.063Z,5.00
2018-08-12T00:29:13.157Z,4.40
2018-08-12T00:31:47.953Z,5.23
2018-08-12T00:34:23.067Z,5.13
2018-08-12T00:36:57.444Z,4.40
2018-08-12T00:39:32.319Z,4.73
2018-08-12T00:42:06.683Z,4.73
2018-08-12T00:44:44.928Z,4.97
2018-08-12T00:47:19.458Z,5.20
2018-08-12T00:49:54.173Z,5.37
2018-08-12T00:52:29.393Z,7.87
2018-08-12T00:55:04.279Z,4.27
2018-08-12T00:57:38.680Z,7.47
2018-08-12T01:00:15.844Z,4.17
2018-08-12T01:02:50.768Z,4.93
2018-08-12T01:05:24.895Z,4.63
2018-08-12T01:07:59.745Z,5.40
2018-08-12T01:10:34.710Z,4.80
2018-08-12T01:13:09.823Z,6.17
2018-08-12T01:15:44.188Z,5.20
2018-08-12T01:18:18.315Z,4.80
2018-08-12T01:20:53.777Z,6.40
2018-08-12T01:23:27.863Z,5.43
2018-08-12T01:26:02.272Z,4.80
2018-08-12T01:28:36.419Z,4.90
2018-08-12T01:31:10.689Z,5.57
2018-08-12T01:33:45.822Z,4.47
2018-08-12T01:36:20.747Z,5.13
2018-08-12T01:38:55.642Z,4.70
2018-08-12T01:41:30.063Z,4.93
2018-08-12T01:44:05.162Z,5.30
2018-08-12T01:46:39.818Z,4.47
2018-08-12T01:49:15.397Z,4.40
2018-08-12T01:51:49.789Z,5.93
2018-08-12T01:54:24.159Z,5.53
2018-08-12T01:56:58.559Z,5.10
2018-08-12T01:59:33.832Z,5.80
2018-08-12T02:02:08.929Z,4.57
2018-08-12T02:04:44.008Z,5.10
2018-08-12T02:07:18.248Z,5.20
2018-08-12T02:09:52.663Z,4.60
2018-08-12T02:12:26.819Z,5.40
2018-08-12T02:15:01.366Z,4.67
2018-08-12T02:17:35.588Z,5.00
2018-08-12T02:20:10.978Z,4.70
2018-08-12T02:22:45.065Z,5.67
2018-08-12T02:25:19.540Z,5.37
2018-08-12T02:27:53.682Z,4.93
2018-08-12T02:30:28.057Z,4.63
2018-08-12T02:33:03.165Z,5.90
2018-08-12T02:35:37.728Z,5.23
2018-08-12T02:38:12.614Z,5.33
2018-08-12T02:40:46.632Z,4.80
2018-08-12T02:43:21.482Z,5.90
2018-08-12T02:45:56.516Z,5.67
2018-08-12T02:48:30.988Z,5.50
2018-08-12T02:51:05.723Z,9.83
2018-08-12T02:53:39.870Z,6.47
2018-08-12T02:56:14.277Z,6.00
2018-08-12T02:58:48.492Z,8.47
2018-08-12T03:01:22.733Z,5.73
2018-08-12T03:03:56.860Z,6.07
2018-08-12T03:06:31.313Z,5.57
2018-08-12T03:09:08.347Z,6.33
2018-08-12T03:11:42.464Z,6.30
2018-08-12T03:14:16.494Z,6.00
2018-08-12T03:16:50.481Z,5.77
2018-08-12T03:19:29.123Z,5.47
2018-08-12T03:22:03.394Z,5.50
2018-08-12T03:24:37.288Z,5.77
2018-08-12T03:27:11.328Z,5.73
2018-08-12T03:29:45.347Z,5.67
2018-08-12T03:32:19.443Z,6.13
2018-08-12T03:34:54.413Z,5.83
2018-08-12T03:37:28.161Z,6.47
2018-08-12T03:40:05.449Z,5.53
2018-08-12T03:42:39.722Z,10.87
2018-08-12T03:45:14.343Z,5.53
2018-08-12T03:47:48.316Z,5.70
2018-08-12T03:50:22.129Z,5.30
2018-08-12T03:52:56.173Z,7.23
2018-08-12T03:55:30.437Z,5.30
2018-08-12T03:58:04.396Z,5.07
2018-08-12T04:00:38.523Z,5.00
2018-08-12T04:03:12.483Z,5.33
2018-08-12T04:05:46.624Z,4.90
2018-08-12T04:08:20.638Z,4.90
2018-08-12T04:10:54.922Z,5.67
2018-08-12T04:13:29.220Z,5.40
2018-08-12T04:16:03.943Z,5.50
2018-08-12T04:18:38.129Z,6.27
2018-08-12T04:21:12.210Z,5.30
2018-08-12T04:23:46.284Z,5.63
2018-08-12T04:26:20.339Z,6.93
2018-08-12T04:28:54.574Z,5.73
2018-08-12T04:31:28.432Z,5.17
2018-08-12T04:34:02.674Z,6.13
2018-08-12T04:36:37.562Z,5.37
2018-08-12T04:39:12.813Z,5.30
2018-08-12T04:41:46.920Z,8.00
2018-08-12T04:44:20.723Z,5.43
2018-08-12T04:46:54.778Z,5.77
2018-08-12T04:49:28.579Z,5.70
2018-08-12T04:52:02.606Z,7.03
2018-08-12T04:54:36.908Z,8.10
2018-08-12T04:57:10.982Z,6.03
2018-08-12T04:59:44.903Z,5.50
2018-08-12T05:02:19.183Z,5.70
2018-08-12T05:04:53.149Z,5.07
2018-08-12T05:07:27.264Z,4.97
2018-08-12T05:10:01.144Z,4.90
2018-08-12T05:12:35.118Z,5.30
2018-08-12T05:15:09.647Z,5.87
2018-08-12T05:17:43.686Z,5.50
2018-08-12T05:20:17.684Z,5.50
2018-08-12T05:22:51.713Z,5.27
2018-08-12T05:25:25.790Z,5.03
2018-08-12T05:28:00.223Z,5.00
2018-08-12T05:30:34.767Z,5.73
2018-08-12T05:33:08.909Z,5.53
2018-08-12T05:35:43.075Z,5.10
2018-08-12T05:38:17.128Z,4.57
2018-08-12T05:40:51.452Z,4.80
2018-08-12T05:43:25.344Z,4.33
2018-08-12T05:45:59.647Z,7.40
2018-08-12T05:48:33.562Z,4.30
2018-08-12T05:51:07.363Z,4.43
2018-08-12T05:53:41.714Z,3.97
2018-08-12T05:56:15.676Z,4.00
2018-08-12T05:58:49.732Z,4.37
2018-08-12T06:01:23.718Z,4.20
2018-08-12T06:03:57.813Z,4.30
2018-08-12T06:06:31.757Z,4.57
2018-08-12T06:09:08.467Z,6.40
2018-08-12T06:11:42.963Z,4.10
2018-08-12T06:14:17.783Z,5.17
2018-08-12T06:16:51.727Z,3.93
2018-08-12T06:19:25.692Z,4.20
2018-08-12T06:21:59.609Z,4.30
2018-08-12T06:24:33.387Z,4.77
2018-08-12T06:27:07.414Z,4.07
2018-08-12T06:29:41.895Z,3.93
2018-08-12T06:32:15.967Z,4.13
2018-08-12T06:34:50.825Z,4.17
2018-08-12T06:37:24.960Z,3.73
2018-08-12T06:39:58.855Z,3.53
2018-08-12T06:42:32.770Z,3.47
2018-08-12T06:45:09.534Z,3.60
2018-08-12T06:47:45.067Z,3.47
2018-08-12T06:50:19.320Z,3.13
2018-08-12T06:52:53.403Z,3.30
2018-08-12T06:55:27.757Z,3.23
2018-08-12T06:58:01.994Z,6.33
2018-08-12T07:00:36.155Z,3.67
2018-08-12T07:03:10.243Z,5.57
2018-08-12T07:05:44.269Z,2.60
2018-08-12T07:08:18.721Z,2.63
2018-08-12T07:10:52.840Z,4.65
2018-08-12T07:13:27.104Z,2.58
2018-08-12T07:16:01.135Z,4.15
2018-08-12T07:18:35.370Z,2.77
2018-08-12T07:21:10.287Z,3.33
2018-08-12T07:23:44.234Z,2.22
2018-08-12T07:26:18.948Z,3.75
2018-08-12T07:28:53.062Z,3.10
2018-08-12T07:31:27.223Z,2.40
2018-08-12T07:34:01.258Z,4.28
2018-08-12T07:36:35.150Z,2.55
2018-08-12T07:39:09.974Z,2.50
2018-08-12T07:41:44.052Z,2.75
2018-08-12T07:44:18.088Z,2.15
2018-08-12T07:46:52.304Z,3.67
2018-08-12T07:49:33.193Z,2.20
2018-08-12T07:52:07.079Z,4.75
2018-08-12T07:54:41.469Z,4.42
2018-08-12T07:57:15.664Z,2.92
2018-08-12T07:59:49.637Z,2.75
2018-08-12T08:02:24.028Z,2.40
2018-08-12T08:04:58.165Z,3.72
2018-08-12T08:07:32.500Z,1.92
2018-08-12T08:10:10.303Z,2.02
2018-08-12T08:12:44.513Z,2.72
2018-08-12T08:15:20.110Z,2.52
2018-08-12T08:17:54.368Z,1.57
2018-08-12T08:20:28.447Z,4.20
2018-08-12T08:23:02.364Z,2.62
2018-08-12T08:25:36.682Z,2.72
2018-08-12T08:28:14.809Z,1.45
2018-08-12T08:30:48.805Z,2.42
2018-08-12T08:33:22.925Z,1.85
2018-08-12T08:35:56.802Z,1.87
2018-08-12T08:38:31.058Z,1.55
2018-08-12T08:41:05.212Z,1.10
2018-08-12T08:43:39.372Z,2.10
2018-08-12T08:46:13.273Z,1.20
2018-08-12T08:48:47.395Z,1.42
2018-08-12T08:51:21.334Z,1.52
2018-08-12T08:53:55.615Z,1.40
2018-08-12T08:56:30.204Z,2.20
2018-08-12T08:59:04.290Z,1.40
2018-08-12T09:01:38.350Z,1.20
2018-08-12T09:04:12.198Z,3.77
2018-08-12T09:06:46.157Z,1.35
2018-08-12T09:09:20.060Z,1.17
2018-08-12T09:11:54.847Z,1.77
2018-08-12T09:14:29.098Z,0.98
2018-08-12T09:17:03.127Z,1.82
2018-08-12T09:19:43.897Z,2.25
2018-08-12T09:22:18.146Z,3.00
2018-08-12T09:24:52.244Z,3.08
2018-08-12T09:27:26.290Z,1.22
2018-08-12T09:30:00.348Z,2.65
2018-08-12T09:32:34.614Z,1.95
2018-08-12T09:35:08.837Z,1.30
2018-08-12T09:37:43.128Z,1.20
2018-08-12T09:40:17.998Z,2.17
2018-08-12T09:42:52.198Z,2.10
2018-08-12T09:45:26.073Z,2.12
2018-08-12T09:48:00.421Z,1.32
2018-08-12T09:50:34.593Z,2.20
2018-08-12T09:53:08.621Z,2.35
2018-08-12T09:55:43.400Z,1.07
2018-08-12T09:58:17.825Z,1.62
2018-08-12T10:00:51.771Z,2.27
2018-08-12T10:03:25.844Z,1.67
2018-08-12T10:06:00.316Z,1.20
2018-08-12T10:08:34.488Z,1.77
2018-08-12T10:11:09.118Z,0.80
2018-08-12T10:13:43.325Z,1.30
2018-08-12T10:16:18.133Z,2.27
2018-08-12T10:18:52.372Z,2.05
2018-08-12T10:21:26.645Z,1.72
2018-08-12T10:24:00.912Z,0.85
2018-08-12T10:26:35.391Z,1.65
2018-08-12T10:29:09.536Z,2.27
2018-08-12T10:31:43.608Z,1.95
2018-08-12T10:34:18.786Z,1.05
2018-08-12T10:36:53.111Z,2.27
2018-08-12T10:39:27.263Z,1.12
2018-08-12T10:42:01.680Z,1.30
2018-08-12T10:44:35.783Z,2.80
2018-08-12T10:47:09.938Z,1.15
2018-08-12T10:49:43.790Z,1.57
2018-08-12T10:52:17.797Z,4.15
2018-08-12T10:54:52.229Z,2.08
2018-08-12T10:57:26.647Z,0.90
2018-08-12T11:00:00.902Z,2.05
2018-08-12T11:02:35.453Z,1.25
2018-08-12T11:05:09.859Z,1.37
2018-08-12T11:07:45.074Z,0.78
2018-08-12T11:10:19.153Z,1.55
2018-08-12T11:12:52.962Z,2.95
2018-08-12T11:15:26.875Z,1.15
2018-08-12T11:18:00.863Z,2.08
2018-08-12T11:20:34.749Z,0.95
2018-08-12T11:23:08.840Z,1.35
2018-08-12T11:25:43.037Z,1.55
2018-08-12T11:28:17.130Z,1.85
2018-08-12T11:30:51.182Z,1.72
2018-08-12T11:33:25.339Z,1.02
2018-08-12T11:36:00.271Z,1.50
2018-08-12T11:38:34.330Z,1.00
2018-08-12T11:41:09.795Z,0.80
2018-08-12T11:43:44.317Z,1.10
2018-08-12T11:46:18.404Z,2.80
2018-08-12T11:48:53.324Z,1.67
2018-08-12T11:51:27.711Z,0.90
2018-08-12T11:54:01.923Z,1.40
2018-08-12T11:56:35.992Z,3.58
2018-08-12T11:59:10.359Z,1.10
2018-08-12T12:01:48.849Z,1.05
2018-08-12T12:04:23.141Z,1.22
2018-08-12T12:06:57.182Z,1.00
2018-08-12T12:09:31.318Z,1.02
2018-08-12T12:12:06.119Z,1.27
2018-08-12T12:14:40.532Z,1.10
2018-08-12T12:17:14.462Z,1.07
2018-08-12T12:19:48.745Z,2.77
2018-08-12T12:22:22.805Z,1.00
2018-08-12T12:24:56.945Z,2.33
2018-08-12T12:27:31.389Z,0.80
2018-08-12T12:30:06.886Z,0.80
2018-08-12T12:32:41.269Z,1.22
2018-08-12T12:35:15.334Z,1.17
2018-08-12T12:37:49.907Z,2.37
2018-08-12T12:40:24.473Z,1.00
2018-08-12T12:42:58.545Z,1.07
2018-08-12T12:45:32.857Z,1.95
2018-08-12T12:48:06.752Z,1.35
2018-08-12T12:50:41.217Z,2.02
2018-08-12T12:53:15.354Z,1.57
2018-08-12T12:55:49.782Z,2.08
2018-08-12T12:58:23.778Z,1.27
2018-08-12T13:00:58.085Z,1.02
2018-08-12T13:03:32.285Z,1.52
2018-08-12T13:06:06.553Z,1.22
2018-08-12T13:08:40.543Z,2.25
2018-08-12T13:11:15.064Z,2.80
2018-08-12T13:13:49.348Z,1.80
2018-08-12T13:16:23.580Z,1.20
2018-08-12T13:18:57.988Z,1.50
2018-08-12T13:21:32.151Z,1.80
2018-08-12T13:24:06.293Z,1.40
2018-08-12T13:26:41.354Z,1.87
2018-08-12T13:29:16.030Z,1.98
2018-08-12T13:31:50.143Z,1.40
2018-08-12T13:34:24.218Z,2.15
2018-08-12T13:36:58.939Z,1.60
2018-08-12T13:39:33.274Z,1.67
2018-08-12T13:42:13.983Z,1.50
2018-08-12T13:44:48.153Z,2.25
2018-08-12T13:47:22.376Z,1.98
2018-08-12T13:49:56.686Z,1.40
2018-08-12T13:52:31.103Z,1.57
2018-08-12T13:55:06.071Z,1.50
2018-08-12T13:57:40.828Z,2.08
2018-08-12T14:00:17.349Z,1.72
2018-08-12T14:02:51.736Z,2.22
2018-08-12T14:05:26.845Z,1.70
2018-08-12T14:08:00.955Z,2.70
2018-08-12T14:10:35.473Z,2.00
2018-08-12T14:13:09.592Z,1.70
2018-08-12T14:15:43.599Z,1.98
2018-08-12T14:18:17.922Z,2.10
2018-08-12T14:20:53.106Z,1.82
2018-08-12T14:23:27.014Z,2.75
2018-08-12T14:26:01.149Z,1.90
2018-08-12T14:28:35.201Z,2.05
2018-08-12T14:31:10.271Z,2.17
2018-08-12T14:33:44.408Z,3.10
2018-08-12T14:36:18.344Z,1.70
2018-08-12T14:38:52.674Z,2.00
2018-08-12T14:41:26.927Z,2.10
2018-08-12T14:44:00.772Z,1.98
2018-08-12T14:46:35.207Z,2.33
2018-08-12T14:49:09.484Z,1.85
2018-08-12T14:51:43.657Z,2.00
2018-08-12T14:54:17.564Z,1.92
2018-08-12T14:56:51.728Z,2.72
2018-08-12T14:59:25.812Z,1.57
2018-08-12T15:01:59.902Z,3.45
2018-08-12T15:04:33.977Z,1.65
2018-08-12T15:07:08.439Z,1.65
2018-08-12T15:09:42.753Z,1.57
2018-08-12T15:12:18.685Z,1.80
2018-08-12T15:14:52.832Z,1.65
2018-08-12T15:17:27.352Z,2.30
2018-08-12T15:20:01.714Z,1.45
2018-08-12T15:22:35.865Z,2.10
2018-08-12T15:25:12.288Z,1.55
2018-08-12T15:27:46.733Z,2.08
2018-08-12T15:30:20.874Z,1.40
2018-08-12T15:32:55.159Z,1.60
2018-08-12T15:35:29.163Z,3.00
2018-08-12T15:38:03.633Z,1.75
2018-08-12T15:40:37.618Z,2.95
2018-08-12T15:43:12.672Z,1.50
2018-08-12T15:45:47.089Z,1.55
2018-08-12T15:48:20.967Z,1.52
2018-08-12T15:50:55.160Z,1.65
2018-08-12T15:53:30.307Z,1.82
2018-08-12T15:56:04.638Z,2.47
2018-08-12T15:58:38.875Z,1.50
2018-08-12T16:01:12.948Z,1.50
2018-08-12T16:03:47.367Z,1.35
2018-08-12T16:06:21.477Z,1.80
2018-08-12T16:08:55.983Z,1.55
2018-08-12T16:11:29.939Z,1.62
2018-08-12T16:14:04.266Z,1.37
2018-08-12T16:16:38.427Z,1.55
2018-08-12T16:19:12.507Z,2.90
2018-08-12T16:21:46.535Z,2.77
2018-08-12T16:24:20.813Z,1.90
2018-08-12T16:26:55.221Z,1.32
2018-08-12T16:29:29.578Z,1.98
2018-08-12T16:32:04.648Z,1.50
2018-08-12T16:34:38.815Z,1.55
2018-08-12T16:37:12.739Z,2.15
2018-08-12T16:39:47.347Z,2.40
2018-08-12T16:42:21.719Z,1.40
2018-08-12T16:44:55.698Z,4.10
2018-08-12T16:47:30.164Z,1.32
2018-08-12T16:50:05.922Z,1.57
2018-08-12T16:52:40.326Z,1.50
2018-08-12T16:55:15.964Z,3.05
2018-08-12T16:57:49.864Z,1.55
2018-08-12T17:00:24.445Z,1.75
2018-08-12T17:02:58.424Z,1.70
2018-08-12T17:05:32.907Z,1.80
2018-08-12T17:08:07.052Z,1.77
2018-08-12T17:10:41.353Z,1.98
2018-08-12T17:13:15.459Z,1.60
2018-08-12T17:15:49.577Z,1.75
2018-08-12T17:18:26.219Z,2.45
2018-08-12T17:21:01.170Z,2.00
2018-08-12T17:23:36.145Z,2.35
2018-08-12T17:26:10.538Z,3.95
2018-08-12T17:28:44.881Z,3.10
2018-08-12T17:31:19.159Z,2.45
2018-08-12T17:33:53.189Z,4.28
2018-08-12T17:36:27.329Z,2.25
2018-08-12T17:39:02.844Z,3.05
2018-08-12T17:41:36.908Z,2.37
2018-08-12T17:44:11.073Z,1.90
2018-08-12T17:46:45.572Z,1.75
2018-08-12T17:49:19.907Z,2.77
2018-08-12T17:51:53.945Z,2.60
2018-08-12T17:54:28.765Z,3.25
2018-08-12T17:57:02.943Z,2.85
2018-08-12T17:59:37.783Z,1.87
2018-08-12T18:02:12.722Z,2.25
2018-08-12T18:04:46.913Z,1.98
2018-08-12T18:07:21.333Z,2.20
2018-08-12T18:09:56.828Z,1.98
2018-08-12T18:12:31.000Z,2.17
2018-08-12T18:15:06.879Z,3.70
2018-08-12T18:17:41.859Z,2.22
2018-08-12T18:20:16.167Z,2.30
2018-08-12T18:22:50.655Z,6.55
2018-08-12T18:25:25.119Z,2.50
2018-08-12T18:28:00.048Z,2.77
2018-08-12T18:30:35.384Z,2.70
2018-08-12T18:33:09.804Z,4.08
2018-08-12T18:35:44.008Z,3.25
2018-08-12T18:38:18.451Z,2.95
2018-08-12T18:40:52.893Z,2.60
2018-08-12T18:43:27.437Z,2.40
2018-08-12T18:46:01.859Z,2.22
2018-08-12T18:48:36.243Z,2.75
2018-08-12T18:51:10.927Z,3.30
2018-08-12T18:53:45.324Z,3.85
2018-08-12T18:56:19.575Z,3.45
2018-08-12T18:58:53.698Z,2.05
2018-08-12T19:01:34.434Z,2.15
2018-08-12T19:04:08.752Z,3.00
2018-08-12T19:06:43.352Z,2.42
2018-08-12T19:09:17.889Z,2.47
2018-08-12T19:11:52.283Z,2.83
2018-08-12T19:14:26.318Z,3.10
2018-08-12T19:17:01.250Z,2.10
2018-08-12T19:19:35.253Z,2.75
2018-08-12T19:22:09.568Z,3.08
2018-08-12T19:24:43.858Z,2.98
2018-08-12T19:27:17.978Z,2.45
2018-08-12T19:29:52.284Z,2.35
2018-08-12T19:32:26.414Z,2.87
2018-08-12T19:35:00.583Z,2.55
2018-08-12T19:37:34.405Z,4.28
2018-08-12T19:40:08.920Z,2.62
2018-08-12T19:42:43.636Z,2.12
2018-08-12T19:45:18.155Z,2.50
2018-08-12T19:47:52.350Z,3.05
2018-08-12T19:50:26.559Z,3.30
2018-08-12T19:53:00.970Z,2.35
2018-08-12T19:55:34.938Z,2.40
2018-08-12T19:58:08.951Z,2.25
2018-08-12T20:00:43.280Z,2.58
2018-08-12T20:03:17.359Z,3.77
2018-08-12T20:05:51.700Z,2.20
2018-08-12T20:08:26.080Z,3.50
2018-08-12T20:11:00.097Z,2.40
2018-08-12T20:13:34.394Z,2.98
2018-08-12T20:16:09.061Z,2.30
2018-08-12T20:18:43.455Z,4.50
2018-08-12T20:21:17.536Z,3.72
2018-08-12T20:23:52.983Z,2.85
2018-08-12T20:26:27.304Z,3.90
2018-08-12T20:29:01.397Z,3.20
2018-08-12T20:31:35.673Z,2.85
2018-08-12T20:34:09.970Z,4.85
2018-08-12T20:36:44.307Z,3.90
2018-08-12T20:39:18.609Z,4.72
2018-08-12T20:41:52.579Z,3.52
2018-08-12T20:44:26.494Z,4.03
2018-08-12T20:47:00.850Z,4.15
2018-08-12T20:49:34.914Z,3.27
2018-08-12T20:52:09.420Z,4.58
2018-08-12T20:54:43.973Z,4.00
2018-08-12T20:57:17.883Z,3.20
2018-08-12T20:59:52.175Z,3.17
2018-08-12T21:02:26.286Z,2.70
2018-08-12T21:05:00.365Z,3.08
2018-08-12T21:07:34.557Z,3.35
2018-08-12T21:10:09.094Z,3.47
2018-08-12T21:12:43.093Z,2.42
2018-08-12T21:15:17.528Z,3.00
2018-08-12T21:17:51.848Z,2.45
2018-08-12T21:20:26.859Z,2.42
2018-08-12T21:23:01.052Z,3.83
2018-08-12T21:25:35.025Z,4.08
2018-08-12T21:28:10.564Z,2.90
2018-08-12T21:30:44.601Z,3.33
2018-08-12T21:33:19.111Z,2.98
2018-08-12T21:35:53.454Z,2.80
2018-08-12T21:38:27.648Z,4.10
2018-08-12T21:41:01.899Z,3.25
2018-08-12T21:43:36.818Z,3.67
2018-08-12T21:46:10.846Z,2.37
2018-08-12T21:48:44.932Z,3.17
2018-08-12T21:51:18.914Z,2.87
2018-08-12T21:53:53.159Z,3.10
2018-08-12T21:56:27.234Z,3.42
2018-08-12T21:59:01.358Z,2.37
2018-08-12T22:01:36.158Z,2.77
2018-08-12T22:04:10.636Z,2.33
2018-08-12T22:06:44.758Z,2.42
2018-08-12T22:09:18.837Z,2.00
2018-08-12T22:11:53.147Z,3.45
2018-08-12T22:14:27.114Z,3.80
2018-08-12T22:17:01.467Z,2.20
2018-08-12T22:19:35.441Z,5.03
2018-08-12T22:22:09.748Z,3.65
2018-08-12T22:24:44.193Z,2.92
2018-08-12T22:27:19.449Z,2.27
2018-08-12T22:29:53.462Z,3.42
2018-08-12T22:32:27.281Z,3.02
2018-08-12T22:35:01.220Z,3.85
2018-08-12T22:37:35.214Z,3.42
2018-08-12T22:40:09.284Z,4.37
2018-08-12T22:42:43.427Z,2.45
2018-08-12T22:45:17.617Z,3.83
2018-08-12T22:47:51.531Z,2.20
2018-08-12T22:50:25.630Z,2.22
2018-08-12T22:52:59.722Z,3.83
2018-08-12T22:55:33.647Z,3.92
2018-08-12T22:58:07.978Z,3.42
2018-08-12T23:00:42.972Z,3.55
2018-08-12T23:03:16.972Z,3.45
2018-08-12T23:05:50.849Z,3.62
2018-08-12T23:08:24.888Z,3.22
2018-08-12T23:10:59.277Z,3.25
2018-08-12T23:13:33.498Z,3.22
2018-08-12T23:16:21.018Z,2.67
2018-08-12T23:18:55.072Z,2.55
2018-08-12T23:21:28.841Z,3.05
2018-08-12T23:24:02.957Z,3.05
2018-08-12T23:26:37.907Z,1.98
2018-08-12T23:29:11.811Z,2.05
2018-08-12T23:31:46.476Z,2.25
2018-08-12T23:34:20.907Z,1.93
2018-08-12T23:36:54.809Z,5.37
2018-08-12T23:39:28.742Z,2.70
2018-08-12T23:42:02.782Z,2.87
2018-08-12T23:44:37.398Z,2.17
2018-08-12T23:47:11.666Z,4.55
2018-08-12T23:49:45.813Z,2.30
2018-08-12T23:52:20.206Z,2.97
2018-08-12T23:54:54.032Z,1.65
2018-08-12T23:57:28.238Z,3.22
